createdAt,value
2019-04-04T00:01:47.808Z,99589.80
2019-04-04T00:04:16.848Z,99570.17
2019-04-04T00:06:48.842Z,99544.88
2019-04-04T00:09:19.059Z,99521.05
2019-04-04T00:11:49.894Z,99510.05
2019-04-04T00:14:20.035Z,99506.53
2019-04-04T00:16:50.166Z,99520.46
2019-04-04T00:19:20.367Z,99532.55
2019-04-04T00:21:50.423Z,99534.20
2019-04-04T00:24:20.519Z,99545.97
2019-04-04T00:26:50.594Z,99544.41
2019-04-04T00:29:20.682Z,99538.00
2019-04-04T00:31:50.821Z,99525.57
2019-04-04T00:34:20.995Z,99524.13
2019-04-04T00:36:51.104Z,99518.03
2019-04-04T00:39:21.434Z,99482.59
2019-04-04T00:41:51.706Z,99515.64
2019-04-04T00:44:23.128Z,99502.73
2019-04-04T00:46:53.873Z,99503.81
2019-04-04T00:49:24.079Z,99498.03
2019-04-04T00:51:54.178Z,99517.98
2019-04-04T00:54:24.304Z,99535.16
2019-04-04T00:56:54.433Z,99534.92
2019-04-04T00:59:24.538Z,99536.88
2019-04-04T01:01:55.077Z,99531.78
2019-04-04T01:04:26.407Z,99533.37
2019-04-04T01:06:56.502Z,99534.16
2019-04-04T01:09:26.603Z,99541.34
2019-04-04T01:11:56.730Z,99551.84
2019-04-04T01:14:27.159Z,99565.78
2019-04-04T01:16:58.650Z,99575.44
2019-04-04T01:19:28.736Z,99573.80
2019-04-04T01:21:58.893Z,99588.48
2019-04-04T01:24:29.758Z,99592.99
2019-04-04T01:27:00.060Z,99591.06
2019-04-04T01:29:30.120Z,99593.06
2019-04-04T01:32:00.255Z,99593.34
2019-04-04T01:34:30.333Z,99581.98
2019-04-04T01:37:00.448Z,99569.20
2019-04-04T01:39:31.341Z,99557.27
2019-04-04T01:42:02.238Z,99557.48
2019-04-04T01:44:32.266Z,99555.81
2019-04-04T01:47:02.374Z,99544.30
2019-04-04T01:49:32.533Z,99530.30
2019-04-04T01:52:02.625Z,99525.24
2019-04-04T01:54:33.255Z,99518.44
2019-04-04T01:57:03.409Z,99498.95
2019-04-04T01:59:33.447Z,99488.00
2019-04-04T02:02:03.889Z,99463.03
2019-04-04T02:04:33.951Z,99477.20
2019-04-04T02:07:03.855Z,99521.08
2019-04-04T02:09:34.550Z,99496.66
2019-04-04T02:12:07.625Z,99499.38
2019-04-04T02:14:36.676Z,99499.76
2019-04-04T02:17:06.759Z,99490.07
2019-04-04T02:19:36.879Z,99476.85
2019-04-04T02:22:06.965Z,99487.33
2019-04-04T02:24:37.003Z,99496.00
2019-04-04T02:27:07.641Z,99491.95
2019-04-04T02:29:37.890Z,99489.82
2019-04-04T02:32:13.922Z,99487.80
2019-04-04T02:34:44.007Z,99475.05
2019-04-04T02:37:14.102Z,99459.27
2019-04-04T02:39:44.201Z,99469.85
2019-04-04T02:42:14.269Z,99459.77
2019-04-04T02:44:44.422Z,99463.24
2019-04-04T02:47:16.805Z,99455.48
2019-04-04T02:49:46.274Z,99454.19
2019-04-04T02:52:16.458Z,99452.27
2019-04-04T02:54:46.495Z,99462.78
2019-04-04T02:57:16.594Z,99467.27
2019-04-04T02:59:46.706Z,99476.53
2019-04-04T03:02:16.829Z,99481.90
2019-04-04T03:04:47.260Z,99483.41
2019-04-04T03:07:17.488Z,99467.05
2019-04-04T03:09:47.571Z,99465.23
2019-04-04T03:12:17.609Z,99464.38
2019-04-04T03:14:50.558Z,99454.41
2019-04-04T03:17:19.493Z,99452.08
2019-04-04T03:19:49.593Z,99446.47
2019-04-04T03:22:19.629Z,99443.75
2019-04-04T03:24:49.705Z,99450.77
2019-04-04T03:27:19.739Z,99464.32
2019-04-04T03:29:49.810Z,99478.62
2019-04-04T03:32:19.842Z,99487.05
2019-04-04T03:34:51.379Z,99497.89
2019-04-04T03:37:21.797Z,99510.06
2019-04-04T03:39:53.267Z,99530.02
2019-04-04T03:42:23.575Z,99529.88
2019-04-04T03:44:54.442Z,99521.14
2019-04-04T03:47:24.633Z,99516.58
2019-04-04T03:49:57.731Z,99522.20
2019-04-04T03:52:26.521Z,99534.73
2019-04-04T03:54:56.720Z,99540.42
2019-04-04T03:57:26.716Z,99532.99
2019-04-04T03:59:56.825Z,99540.05
2019-04-04T04:02:26.906Z,99532.71
2019-04-04T04:05:00.534Z,99524.75
2019-04-04T04:07:28.722Z,99530.11
2019-04-04T04:10:03.800Z,99530.13
2019-04-04T04:12:33.846Z,99524.05
2019-04-04T04:15:04.084Z,99524.30
2019-04-04T04:17:36.213Z,99528.39
2019-04-04T04:20:06.463Z,99523.70
2019-04-04T04:22:36.548Z,99525.41
2019-04-04T04:25:06.791Z,99524.01
2019-04-04T04:27:36.861Z,99525.17
2019-04-04T04:30:07.664Z,99537.22
2019-04-04T04:32:38.087Z,99536.63
2019-04-04T04:35:09.159Z,99527.59
2019-04-04T04:37:39.287Z,99508.90
2019-04-04T04:40:13.899Z,99514.48
2019-04-04T04:42:41.359Z,99515.11
2019-04-04T04:45:12.524Z,99507.58
2019-04-04T04:47:42.753Z,99521.34
2019-04-04T04:50:13.992Z,99522.33
2019-04-04T04:52:46.348Z,99514.05
2019-04-04T04:55:16.245Z,99503.67
2019-04-04T04:57:46.377Z,99509.85
2019-04-04T05:00:16.777Z,99521.03
2019-04-04T05:02:46.820Z,99528.69
2019-04-04T05:05:16.905Z,99529.91
2019-04-04T05:07:47.057Z,99530.98
2019-04-04T05:10:17.272Z,99539.48
2019-04-04T05:12:47.356Z,99543.15
2019-04-04T05:15:17.561Z,99535.47
2019-04-04T05:17:49.643Z,99534.41
2019-04-04T05:20:19.751Z,99524.34
2019-04-04T05:22:49.933Z,99523.63
2019-04-04T05:25:20.108Z,99520.27
2019-04-04T05:27:50.263Z,99517.30
2019-04-04T05:30:20.639Z,99510.95
2019-04-04T05:32:53.039Z,99499.38
2019-04-04T05:35:22.535Z,99496.16
2019-04-04T05:37:52.679Z,99498.43
2019-04-04T05:40:23.509Z,99517.31
2019-04-04T05:42:54.396Z,99516.75
2019-04-04T05:45:24.544Z,99520.48
2019-04-04T05:47:56.367Z,99519.80
2019-04-04T05:50:26.692Z,99516.42
2019-04-04T05:52:56.935Z,99519.30
2019-04-04T05:55:27.038Z,99511.62
2019-04-04T05:57:57.147Z,99512.66
2019-04-04T06:00:28.128Z,99512.52
2019-04-04T06:02:58.427Z,99517.69
2019-04-04T06:05:28.565Z,99516.97
2019-04-04T06:07:58.699Z,99528.48
2019-04-04T06:10:28.759Z,99533.98
2019-04-04T06:12:58.850Z,99528.21
2019-04-04T06:15:30.071Z,99528.77
2019-04-04T06:18:00.773Z,99536.27
2019-04-04T06:20:30.881Z,99542.45
2019-04-04T06:23:01.205Z,99550.26
2019-04-04T06:25:34.746Z,99548.47
2019-04-04T06:28:03.405Z,99536.76
2019-04-04T06:30:42.999Z,99538.78
2019-04-04T06:33:05.337Z,99538.92
2019-04-04T06:35:35.451Z,99527.94
2019-04-04T06:38:05.532Z,99524.61
2019-04-04T06:40:35.619Z,99517.59
2019-04-04T06:43:10.624Z,99513.50
2019-04-04T06:45:37.649Z,99497.67
2019-04-04T06:48:07.741Z,99504.37
2019-04-04T06:50:39.993Z,99504.09
2019-04-04T06:53:09.547Z,99515.16
2019-04-04T06:55:40.280Z,99511.10
2019-04-04T06:58:10.513Z,99509.69
2019-04-04T07:00:42.168Z,99507.60
2019-04-04T07:03:12.437Z,99515.63
2019-04-04T07:05:42.494Z,99514.41
2019-04-04T07:08:14.798Z,99509.98
2019-04-04T07:10:44.335Z,99507.20
2019-04-04T07:13:21.732Z,99509.91
2019-04-04T07:15:55.865Z,99514.70
2019-04-04T07:18:18.020Z,99512.29
2019-04-04T07:20:48.922Z,99523.36
2019-04-04T07:23:19.133Z,99527.79
2019-04-04T07:25:49.173Z,99527.91
2019-04-04T07:28:19.730Z,99532.78
2019-04-04T07:30:49.931Z,99525.00
2019-04-04T07:33:21.510Z,99525.50
2019-04-04T07:35:51.637Z,99523.98
2019-04-04T07:38:21.771Z,99530.05
2019-04-04T07:40:51.833Z,99538.77
2019-04-04T07:43:21.919Z,99532.19
2019-04-04T07:45:53.888Z,99530.35
2019-04-04T07:48:23.779Z,99534.30
2019-04-04T07:50:58.608Z,99549.86
2019-04-04T07:53:29.311Z,99552.33
2019-04-04T07:55:59.492Z,99547.73
2019-04-04T07:58:29.628Z,99530.10
2019-04-04T08:00:59.747Z,99524.84
2019-04-04T08:03:30.945Z,99523.92
2019-04-04T08:06:01.115Z,99522.00
2019-04-04T08:08:31.222Z,99531.69
2019-04-04T08:11:02.876Z,99530.95
2019-04-04T08:13:33.032Z,99530.84
2019-04-04T08:16:03.412Z,99522.57
2019-04-04T08:18:33.458Z,99512.14
2019-04-04T08:21:05.735Z,99529.37
2019-04-04T08:23:35.494Z,99524.65
2019-04-04T08:26:05.619Z,99533.65
2019-04-04T08:28:35.685Z,99528.46
2019-04-04T08:31:05.754Z,99528.13
2019-04-04T08:33:35.809Z,99532.67
2019-04-04T08:36:06.679Z,99552.24
2019-04-04T08:38:36.981Z,99554.98
2019-04-04T08:41:07.072Z,99558.50
2019-04-04T08:43:37.141Z,99547.23
2019-04-04T08:46:07.211Z,99552.67
2019-04-04T08:48:37.316Z,99561.45
2019-04-04T08:51:07.441Z,99550.83
2019-04-04T08:53:40.122Z,99543.03
2019-04-04T08:56:09.314Z,99548.45
2019-04-04T08:58:40.350Z,99557.25
2019-04-04T09:01:10.397Z,99573.64
2019-04-04T09:03:40.459Z,99572.23
2019-04-04T09:06:10.557Z,99574.71
2019-04-04T09:08:40.638Z,99574.12
2019-04-04T09:11:10.834Z,99572.03
2019-04-04T09:13:40.934Z,99566.35
2019-04-04T09:16:11.032Z,99559.94
2019-04-04T09:18:41.109Z,99559.07
2019-04-04T09:21:11.244Z,99557.20
2019-04-04T09:23:41.305Z,99556.67
2019-04-04T09:26:11.502Z,99548.66
2019-04-04T09:28:41.570Z,99554.98
2019-04-04T09:31:11.698Z,99553.73
2019-04-04T09:33:41.753Z,99565.81
2019-04-04T09:36:11.824Z,99563.50
2019-04-04T09:38:41.945Z,99542.45
2019-04-04T09:41:12.059Z,99545.13
2019-04-04T09:43:42.123Z,99552.45
2019-04-04T09:46:12.216Z,99555.06
2019-04-04T09:48:42.298Z,99557.27
2019-04-04T09:51:12.492Z,99550.20
2019-04-04T09:53:52.850Z,99556.16
2019-04-04T09:56:14.307Z,99553.43
2019-04-04T09:58:44.352Z,99555.02
2019-04-04T10:01:14.548Z,99554.30
2019-04-04T10:03:44.664Z,99559.56
2019-04-04T10:06:14.749Z,99554.33
2019-04-04T10:08:44.867Z,99568.25
2019-04-04T10:11:14.915Z,99580.94
2019-04-04T10:13:45.025Z,99575.56
2019-04-04T10:16:15.116Z,99564.22
2019-04-04T10:18:45.202Z,99563.00
2019-04-04T10:21:15.300Z,99563.81
2019-04-04T10:23:45.402Z,99556.80
2019-04-04T10:26:15.512Z,99544.91
2019-04-04T10:28:45.583Z,99551.24
2019-04-04T10:31:15.767Z,99564.08
2019-04-04T10:33:45.883Z,99554.67
2019-04-04T10:36:15.995Z,99547.42
2019-04-04T10:38:46.162Z,99563.26
2019-04-04T10:41:16.221Z,99559.86
2019-04-04T10:43:46.368Z,99543.78
2019-04-04T10:46:16.543Z,99549.37
2019-04-04T10:48:46.684Z,99546.19
2019-04-04T10:51:16.770Z,99542.19
2019-04-04T10:53:46.911Z,99550.23
2019-04-04T10:56:17.022Z,99547.61
2019-04-04T10:58:47.104Z,99552.64
2019-04-04T11:01:17.167Z,99554.77
2019-04-04T11:03:47.332Z,99557.20
2019-04-04T11:06:17.385Z,99566.59
2019-04-04T11:08:47.490Z,99563.94
2019-04-04T11:11:17.591Z,99554.50
2019-04-04T11:13:47.685Z,99551.58
2019-04-04T11:16:29.570Z,99547.85
2019-04-04T11:18:49.607Z,99549.74
2019-04-04T11:21:19.663Z,99557.27
2019-04-04T11:23:49.777Z,99559.16
2019-04-04T11:26:19.956Z,99564.25
2019-04-04T11:28:50.151Z,99566.95
2019-04-04T11:31:20.206Z,99564.52
2019-04-04T11:33:50.301Z,99574.22
2019-04-04T11:36:20.388Z,99571.82
2019-04-04T11:38:50.545Z,99572.89
2019-04-04T11:41:20.628Z,99571.55
2019-04-04T11:43:50.723Z,99581.77
2019-04-04T11:46:20.797Z,99584.44
2019-04-04T11:48:50.923Z,99586.58
2019-04-04T11:51:21.006Z,99588.47
2019-04-04T11:53:51.099Z,99587.13
2019-04-04T11:56:21.205Z,99578.76
2019-04-04T11:58:51.251Z,99581.73
2019-04-04T12:01:21.751Z,99590.06
2019-04-04T12:03:51.843Z,99586.31
2019-04-04T12:06:21.971Z,99588.48
2019-04-04T12:08:52.025Z,99587.14
2019-04-04T12:11:22.816Z,99570.49
2019-04-04T12:13:53.099Z,99556.80
2019-04-04T12:16:23.221Z,99568.08
2019-04-04T12:18:53.309Z,99570.50
2019-04-04T12:21:23.428Z,99573.45
2019-04-04T12:23:53.497Z,99567.00
2019-04-04T12:26:23.613Z,99565.95
2019-04-04T12:28:53.707Z,99567.00
2019-04-04T12:31:23.805Z,99569.16
2019-04-04T12:33:53.932Z,99566.20
2019-04-04T12:36:25.140Z,99559.23
2019-04-04T12:38:55.377Z,99566.45
2019-04-04T12:41:28.130Z,99572.64
2019-04-04T12:43:57.246Z,99567.53
2019-04-04T12:46:27.341Z,99568.89
2019-04-04T12:48:57.451Z,99563.78
2019-04-04T12:51:27.603Z,99562.67
2019-04-04T12:53:57.685Z,99559.73
2019-04-04T12:56:27.806Z,99569.11
2019-04-04T12:58:57.875Z,99566.72
2019-04-04T13:01:27.958Z,99565.91
2019-04-04T13:03:58.063Z,99570.48
2019-04-04T13:06:28.205Z,99572.40
2019-04-04T13:08:58.290Z,99584.47
2019-04-04T13:11:28.533Z,99583.39
2019-04-04T13:13:58.638Z,99580.39
2019-04-04T13:16:28.751Z,99578.20
2019-04-04T13:18:58.849Z,99580.34
2019-04-04T13:21:28.949Z,99574.20
2019-04-04T13:23:59.043Z,99574.75
2019-04-04T13:26:29.156Z,99571.12
2019-04-04T13:28:59.263Z,99563.62
2019-04-04T13:31:29.179Z,99565.52
2019-04-04T13:33:59.254Z,99566.09
2019-04-04T13:36:29.390Z,99558.52
2019-04-04T13:38:59.597Z,99572.75
2019-04-04T13:41:29.888Z,99566.58
2019-04-04T13:43:59.964Z,99569.86
2019-04-04T13:46:30.056Z,99567.33
2019-04-04T13:49:00.146Z,99577.31
2019-04-04T13:51:30.281Z,99580.54
2019-04-04T13:54:00.370Z,99575.64
2019-04-04T13:56:30.467Z,99564.64
2019-04-04T13:59:02.032Z,99571.33
2019-04-04T14:01:32.815Z,99574.89
2019-04-04T14:04:03.029Z,99583.94
2019-04-04T14:06:33.098Z,99583.94
2019-04-04T14:09:03.322Z,99560.83
2019-04-04T14:11:33.426Z,99560.83
2019-04-04T14:14:03.525Z,99563.83
2019-04-04T14:16:33.688Z,99562.61
2019-04-04T14:19:03.830Z,99566.63
2019-04-04T14:21:33.953Z,99566.11
2019-04-04T14:24:13.081Z,99564.13
2019-04-04T14:26:35.935Z,99567.61
2019-04-04T14:29:06.132Z,99569.41
2019-04-04T14:31:36.218Z,99559.17
2019-04-04T14:34:06.516Z,99559.17
2019-04-04T14:36:36.687Z,99567.48
2019-04-04T14:39:08.572Z,99567.65
2019-04-04T14:41:38.658Z,99534.67
2019-04-04T14:44:08.762Z,99550.80
2019-04-04T14:46:39.340Z,99538.67
2019-04-04T14:49:10.052Z,99542.94
2019-04-04T14:51:40.139Z,99540.72
2019-04-04T14:54:10.270Z,99536.44
2019-04-04T14:56:40.373Z,99543.03
2019-04-04T14:59:10.468Z,99541.54
2019-04-04T15:01:40.730Z,99545.64
2019-04-04T15:04:10.895Z,99538.09
2019-04-04T15:06:40.998Z,99528.00
2019-04-04T15:09:11.741Z,99492.08
2019-04-04T15:11:41.843Z,99510.58
2019-04-04T15:14:12.072Z,99521.49
2019-04-04T15:16:42.115Z,99520.13
2019-04-04T15:19:12.333Z,99520.80
2019-04-04T15:21:42.403Z,99520.09
2019-04-04T15:24:12.502Z,99524.58
2019-04-04T15:26:42.583Z,99520.71
2019-04-04T15:29:12.689Z,99534.92
2019-04-04T15:31:42.815Z,99526.57
2019-04-04T15:34:12.939Z,99532.02
2019-04-04T15:36:43.041Z,99531.70
2019-04-04T15:39:15.875Z,99528.23
2019-04-04T15:41:45.098Z,99525.80
2019-04-04T15:44:15.234Z,99532.52
2019-04-04T15:46:45.344Z,99527.87
2019-04-04T15:49:15.457Z,99533.62
2019-04-04T15:51:45.584Z,99537.17
2019-04-04T15:54:15.664Z,99545.22
2019-04-04T15:56:45.791Z,99549.78
2019-04-04T15:59:15.846Z,99549.48
2019-04-04T16:01:45.958Z,99547.09
2019-04-04T16:04:16.038Z,99546.25
2019-04-04T16:06:46.175Z,99551.36
2019-04-04T16:09:17.930Z,99559.63
2019-04-04T16:11:49.761Z,99551.58
2019-04-04T16:14:19.796Z,99564.50
2019-04-04T16:16:49.971Z,99564.50
2019-04-04T16:19:20.067Z,99571.77
2019-04-04T16:21:50.185Z,99567.09
2019-04-04T16:24:20.364Z,99558.64
2019-04-04T16:26:50.473Z,99558.84
2019-04-04T16:29:20.653Z,99566.09
2019-04-04T16:31:50.803Z,99568.88
2019-04-04T16:34:20.862Z,99569.42
2019-04-04T16:36:51.058Z,99580.80
2019-04-04T16:39:21.208Z,99590.08
2019-04-04T16:42:01.583Z,99593.62
2019-04-04T16:44:23.195Z,99587.15
2019-04-04T16:46:53.332Z,99593.06
2019-04-04T16:49:23.442Z,99599.03
2019-04-04T16:51:53.553Z,99605.53
2019-04-04T16:54:23.647Z,99609.81
2019-04-04T16:56:53.765Z,99618.47
2019-04-04T16:59:23.905Z,99613.90
2019-04-04T17:01:54.077Z,99613.90
2019-04-04T17:04:24.206Z,99618.18
2019-04-04T17:06:54.879Z,99623.86
2019-04-04T17:09:25.089Z,99629.48
2019-04-04T17:11:55.273Z,99630.84
2019-04-04T17:14:25.385Z,99641.95
2019-04-04T17:16:55.523Z,99659.20
2019-04-04T17:19:25.717Z,99659.20
2019-04-04T17:21:55.816Z,99665.98
2019-04-04T17:24:25.926Z,99667.32
2019-04-04T17:26:57.486Z,99675.89
2019-04-04T17:29:27.717Z,99686.66
2019-04-04T17:31:58.182Z,99668.14
2019-04-04T17:34:28.482Z,99673.77
2019-04-04T17:36:58.869Z,99678.09
2019-04-04T17:39:28.982Z,99678.66
2019-04-04T17:41:59.687Z,99675.19
2019-04-04T17:44:29.755Z,99668.94
2019-04-04T17:46:59.919Z,99677.59
2019-04-04T17:49:30.508Z,99683.27
2019-04-04T17:52:02.906Z,99687.30
2019-04-04T17:54:33.517Z,99682.96
2019-04-04T17:57:04.191Z,99680.63
2019-04-04T17:59:34.345Z,99677.64
2019-04-04T18:02:04.412Z,99672.82
2019-04-04T18:04:34.784Z,99665.53
2019-04-04T18:07:04.935Z,99674.50
2019-04-04T18:09:35.215Z,99672.27
2019-04-04T18:12:05.336Z,99687.87
2019-04-04T18:14:35.445Z,99698.94
2019-04-04T18:17:05.676Z,99706.76
2019-04-04T18:19:35.813Z,99716.70
2019-04-04T18:22:05.910Z,99725.88
2019-04-04T18:24:36.070Z,99718.06
2019-04-04T18:27:06.180Z,99726.14
2019-04-04T18:29:36.336Z,99726.96
2019-04-04T18:32:06.459Z,99732.61
2019-04-04T18:34:36.961Z,99743.09
2019-04-04T18:37:07.112Z,99744.69
2019-04-04T18:39:37.260Z,99742.80
2019-04-04T18:42:07.343Z,99743.08
2019-04-04T18:44:37.522Z,99737.16
2019-04-04T18:47:07.620Z,99738.42
2019-04-04T18:49:37.778Z,99739.39
2019-04-04T18:52:07.881Z,99737.58
2019-04-04T18:54:38.025Z,99742.08
2019-04-04T18:57:08.117Z,99743.44
2019-04-04T18:59:38.266Z,99750.73
2019-04-04T19:02:08.417Z,99755.56
2019-04-04T19:04:38.524Z,99756.92
2019-04-04T19:07:08.620Z,99760.62
2019-04-04T19:09:38.766Z,99758.55
2019-04-04T19:12:08.848Z,99754.22
2019-04-04T19:14:38.970Z,99746.92
2019-04-04T19:17:09.043Z,99746.45
2019-04-04T19:19:39.193Z,99747.70
2019-04-04T19:22:09.340Z,99749.63
2019-04-04T19:24:39.533Z,99748.09
2019-04-04T19:27:09.660Z,99738.32
2019-04-04T19:29:39.810Z,99733.45
2019-04-04T19:32:09.887Z,99743.11
2019-04-04T19:34:40.090Z,99744.52
2019-04-04T19:37:09.974Z,99750.88
2019-04-04T19:39:40.168Z,99753.88
2019-04-04T19:42:10.414Z,99751.09
2019-04-04T19:44:52.433Z,99754.38
2019-04-04T19:47:12.335Z,99747.56
2019-04-04T19:49:42.432Z,99751.45
2019-04-04T19:52:12.504Z,99751.74
2019-04-04T19:54:42.642Z,99745.52
2019-04-04T19:57:12.699Z,99742.31
2019-04-04T19:59:42.816Z,99739.92
2019-04-04T20:02:12.884Z,99749.28
2019-04-04T20:04:43.035Z,99745.73
2019-04-04T20:07:13.223Z,99740.20
2019-04-04T20:09:43.364Z,99741.09
2019-04-04T20:12:15.719Z,99742.52
2019-04-04T20:14:45.837Z,99736.97
2019-04-04T20:17:15.914Z,99728.86
2019-04-04T20:19:46.059Z,99732.41
2019-04-04T20:22:16.115Z,99750.47
2019-04-04T20:24:46.240Z,99746.08
2019-04-04T20:27:16.324Z,99757.17
2019-04-04T20:29:46.402Z,99751.53
2019-04-04T20:32:16.452Z,99758.29
2019-04-04T20:34:46.601Z,99740.38
2019-04-04T20:37:16.661Z,99738.53
2019-04-04T20:39:46.816Z,99738.25
2019-04-04T20:42:16.940Z,99738.05
2019-04-04T20:44:47.072Z,99736.41
2019-04-04T20:47:17.160Z,99730.80
2019-04-04T20:49:47.262Z,99734.98
2019-04-04T20:52:17.346Z,99736.69
2019-04-04T20:54:47.512Z,99744.79
2019-04-04T20:57:17.719Z,99739.75
2019-04-04T20:59:47.774Z,99740.66
2019-04-04T21:02:17.874Z,99748.95
2019-04-04T21:04:48.027Z,99745.81
2019-04-04T21:07:18.173Z,99747.61
2019-04-04T21:09:48.403Z,99755.00
2019-04-04T21:12:18.538Z,99755.30
2019-04-04T21:14:48.777Z,99763.41
2019-04-04T21:17:18.909Z,99768.80
2019-04-04T21:19:49.120Z,99775.95
2019-04-04T21:22:27.525Z,99774.02
2019-04-04T21:24:51.128Z,99776.33
2019-04-04T21:27:23.001Z,99770.95
2019-04-04T21:29:53.033Z,99764.23
2019-04-04T21:32:23.126Z,99764.81
2019-04-04T21:34:53.325Z,99759.50
2019-04-04T21:37:23.403Z,99770.86
2019-04-04T21:39:53.684Z,99769.70
2019-04-04T21:42:23.834Z,99770.49
2019-04-04T21:44:53.954Z,99771.08
2019-04-04T21:47:24.056Z,99782.20
2019-04-04T21:49:54.190Z,99780.77
2019-04-04T21:52:24.322Z,99791.25
2019-04-04T21:54:54.427Z,99795.43
2019-04-04T21:57:24.611Z,99798.59
2019-04-04T21:59:54.715Z,99803.89
2019-04-04T22:02:24.919Z,99803.84
2019-04-04T22:04:55.050Z,99806.16
2019-04-04T22:07:25.305Z,99805.08
2019-04-04T22:09:55.494Z,99811.06
2019-04-04T22:12:25.700Z,99814.54
2019-04-04T22:14:55.825Z,99811.95
2019-04-04T22:17:25.906Z,99807.93
2019-04-04T22:19:56.050Z,99813.52
2019-04-04T22:22:26.274Z,99821.58
2019-04-04T22:24:56.425Z,99832.55
2019-04-04T22:27:26.683Z,99836.70
2019-04-04T22:29:56.772Z,99847.92
2019-04-04T22:32:26.952Z,99855.66
2019-04-04T22:34:57.053Z,99849.86
2019-04-04T22:37:27.232Z,99850.32
2019-04-04T22:39:57.435Z,99835.73
2019-04-04T22:42:27.601Z,99841.56
2019-04-04T22:44:57.742Z,99841.42
2019-04-04T22:47:27.865Z,99847.17
2019-04-04T22:49:58.654Z,99847.29
2019-04-04T22:52:28.756Z,99849.55
2019-04-04T22:54:58.929Z,99858.50
2019-04-04T22:57:29.055Z,99861.02
2019-04-04T22:59:59.178Z,99849.16
2019-04-04T23:02:29.292Z,99846.83
2019-04-04T23:04:59.550Z,99853.83
2019-04-04T23:07:29.644Z,99856.87
2019-04-04T23:09:59.804Z,99863.41
2019-04-04T23:12:29.965Z,99856.70
2019-04-04T23:15:00.202Z,99861.72
2019-04-04T23:17:30.394Z,99861.89
2019-04-04T23:20:00.516Z,99854.67
2019-04-04T23:22:30.585Z,99854.70
2019-04-04T23:25:00.738Z,99855.00
2019-04-04T23:27:30.830Z,99849.29
2019-04-04T23:30:02.307Z,99855.52
2019-04-04T23:32:32.412Z,99854.56
2019-04-04T23:35:02.530Z,99858.48
2019-04-04T23:37:32.601Z,99849.61
2019-04-04T23:40:02.869Z,99851.94
2019-04-04T23:42:32.944Z,99856.99
2019-04-04T23:45:03.078Z,99846.60
2019-04-04T23:47:42.572Z,99856.09
2019-04-04T23:50:05.080Z,99865.01
2019-04-04T23:52:35.249Z,99876.11
2019-04-04T23:55:05.856Z,99878.71
2019-04-04T23:57:35.979Z,99871.34
